meteopt.com alexa rank chart, meteopt.com alexa rank daily changes

meteopt.com alexa rank chart, meteopt.com alexa rank daily changes

meteopt.com
Actual rank:
314 533

RANK HISTORY

Date Rank Diff
2017/11/20 314 533 +3 431
2017/11/19 311 102 +28 341
2017/11/18 282 761 -4 861
2017/11/17 287 622 +6 341
2017/11/16 281 281 +5 191
2017/11/15 276 090 -3 931
2017/11/14 280 021 +8 064
2017/11/13 271 957 +4 768
2017/11/12 267 189 -200
2017/11/11 267 389 -7 681
2017/11/10 275 070 -5 068
2017/11/09 280 138 +5 429
2017/11/08 274 709 -1 079
2017/11/07 275 788 -781
2017/11/06 276 569 +4 077
2017/11/05 272 492 -2 937
2017/11/04 275 429 -5 655
2017/11/03 281 084 -2 774
2017/11/02 283 858 +2 424
2017/11/01 281 434 -911
2017/10/31 282 345 +3 298
2017/10/30 279 047 +4 015
2017/10/29 275 032 +5 567
2017/10/28 269 465 -286
2017/10/27 269 751 +941
2017/10/26 268 810 +3 530
2017/10/25 265 280 +4 591
2017/10/24 260 689 -93
2017/10/23 260 782 -2 249
2017/10/22 263 031 -1 375
2017/10/21 264 406 +8 911
2017/10/20 255 495 +697
2017/10/19 254 798 -16 734
2017/10/18 271 532 +7 277
2017/10/17 264 255 -3 430
2017/10/16 267 685 -3 649
2017/10/14 271 334 -3 352
2017/10/13 274 686 +2 137
2017/10/12 272 549 -3 563
2017/10/11 276 112 -1 279
2017/10/10 277 391 +1 483
2017/10/09 275 908 -8 758
2017/10/08 284 666 +3 299
2017/10/07 281 367 +4 817
2017/10/06 276 550 +4 258
2017/10/05 272 292 +2 386
2017/10/04 269 906 +2 931
2017/10/03 266 975 +6 825
2017/10/02 260 150 -6 675
2017/10/01 266 825 -2 685
2017/09/30 269 510 +4 639
2017/09/29 264 871 -6 535
2017/09/28 271 406 +1 886
2017/09/27 269 520 +1 233
2017/09/26 268 287 +3 360
2017/09/25 264 927 +1 339
2017/09/24 263 588 +1 429
2017/09/23 262 159 +408
2017/09/22 261 751

WIDGET FOR YOUR SITE

DOMAINS WITH THE NEAREST RANK

Domain Rank
payplay.fm 314 528
parksider.com 314 529
firestonebeer.com 314 530
wego.co.in 314 531
iv-life.com 314 532
meteopt.com 314 533
canuwrite.com 314 534
aadhar-card.xyz 314 535
begambleaware.org 314 536
dtempurl.com 314 537
dnadewitt.com 314 538

DOMAINS WITH THE NEAREST RANK BY TLD .com

Domain Rank
vipp.com 314 523
blogging-life.com 314 527
parksider.com 314 529
firestonebeer.com 314 530
iv-life.com 314 532
meteopt.com 314 533
canuwrite.com 314 534
dtempurl.com 314 537
dnadewitt.com 314 538
gpleer.com 314 539
combonikhartoum.com 314 540